createdAt,value
2023-03-31T00:01:42.617Z,3.47
2023-03-31T00:04:13.282Z,2.80
2023-03-31T00:06:42.015Z,2.40
2023-03-31T00:09:18.925Z,1.77
2023-03-31T00:11:45.813Z,1.70
2023-03-31T00:14:12.745Z,1.90
2023-03-31T00:16:39.790Z,1.63
2023-03-31T00:19:09.922Z,1.40
2023-03-31T00:21:36.881Z,1.53
2023-03-31T00:24:06.338Z,1.60
2023-03-31T00:26:35.026Z,1.70
2023-03-31T00:29:04.629Z,1.43
2023-03-31T00:31:31.461Z,1.80
2023-03-31T00:33:58.297Z,1.67
2023-03-31T00:36:28.887Z,1.77
2023-03-31T00:39:10.415Z,1.70
2023-03-31T00:41:39.224Z,1.70
2023-03-31T00:44:24.258Z,1.33
2023-03-31T00:46:58.562Z,1.40
2023-03-31T00:49:37.455Z,1.50
2023-03-31T00:52:09.507Z,1.77
2023-03-31T00:54:37.460Z,1.77
2023-03-31T00:57:06.788Z,1.53
2023-03-31T00:59:39.519Z,1.10
2023-03-31T01:02:06.462Z,1.80
2023-03-31T01:04:41.571Z,1.30
2023-03-31T01:07:18.465Z,1.73
2023-03-31T01:09:47.417Z,1.50
2023-03-31T01:12:17.741Z,1.20
2023-03-31T01:14:44.741Z,1.60
2023-03-31T01:17:12.002Z,1.30
2023-03-31T01:20:12.561Z,1.43
2023-03-31T01:23:14.577Z,1.80
2023-03-31T01:25:56.371Z,1.37
2023-03-31T01:28:41.633Z,1.47
2023-03-31T01:31:30.931Z,1.60
2023-03-31T01:34:19.336Z,1.40
2023-03-31T01:37:07.442Z,1.77
2023-03-31T01:39:58.137Z,1.27
2023-03-31T01:42:33.583Z,1.60
2023-03-31T01:45:30.525Z,1.57
2023-03-31T01:48:23.584Z,1.53
2023-03-31T01:51:02.576Z,1.40
2023-03-31T01:53:41.349Z,1.90
2023-03-31T01:56:29.076Z,1.50
2023-03-31T01:59:03.144Z,1.43
2023-03-31T02:01:37.995Z,2.00
2023-03-31T02:04:14.980Z,1.40
2023-03-31T02:06:46.860Z,1.93
2023-03-31T02:09:18.576Z,1.80
2023-03-31T02:11:47.056Z,1.40
2023-03-31T02:14:19.112Z,2.10
2023-03-31T02:16:47.675Z,1.60
2023-03-31T02:19:18.858Z,1.30
2023-03-31T02:21:49.706Z,1.47
2023-03-31T02:24:19.335Z,1.33
2023-03-31T02:26:54.612Z,1.73
2023-03-31T02:29:21.596Z,1.50
2023-03-31T02:31:57.627Z,1.43
2023-03-31T02:34:24.390Z,1.60
2023-03-31T02:36:51.174Z,2.97
2023-03-31T02:39:24.147Z,1.70
2023-03-31T02:41:52.382Z,1.30
2023-03-31T02:44:21.113Z,1.50
2023-03-31T02:46:48.370Z,1.20
2023-03-31T02:49:17.373Z,1.30
2023-03-31T02:52:04.047Z,1.10
2023-03-31T02:55:04.174Z,1.40
2023-03-31T02:57:52.977Z,1.40
2023-03-31T03:00:57.208Z,1.00
2023-03-31T03:03:57.651Z,1.27
2023-03-31T03:06:40.550Z,1.43
2023-03-31T03:09:31.839Z,0.90
2023-03-31T03:12:05.773Z,1.27
2023-03-31T03:14:51.504Z,1.20
2023-03-31T03:17:25.527Z,0.97
2023-03-31T03:19:59.281Z,1.00
2023-03-31T03:22:26.014Z,0.90
2023-03-31T03:24:53.701Z,0.83
2023-03-31T03:27:22.841Z,0.90
2023-03-31T03:29:49.365Z,1.10
2023-03-31T03:32:16.023Z,0.97
2023-03-31T03:34:42.743Z,1.10
2023-03-31T03:37:09.265Z,1.33
2023-03-31T03:39:35.956Z,1.07
2023-03-31T03:42:02.656Z,1.43
2023-03-31T03:44:29.488Z,0.90
2023-03-31T03:46:56.047Z,1.40
2023-03-31T03:49:22.596Z,1.10
2023-03-31T03:51:49.127Z,1.10
2023-03-31T03:54:16.083Z,0.90
2023-03-31T03:56:42.679Z,1.30
2023-03-31T03:59:11.115Z,1.30
2023-03-31T04:01:37.680Z,1.30
2023-03-31T04:04:04.692Z,1.33
2023-03-31T04:06:31.305Z,1.23
2023-03-31T04:08:57.839Z,1.30
2023-03-31T04:11:24.532Z,1.20
2023-03-31T04:13:50.997Z,1.80
2023-03-31T04:16:17.595Z,1.50
2023-03-31T04:18:45.438Z,1.20
2023-03-31T04:21:15.549Z,1.20
2023-03-31T04:23:48.459Z,1.30
2023-03-31T04:26:17.240Z,1.20
2023-03-31T04:28:46.658Z,1.40
2023-03-31T04:31:26.921Z,1.23
2023-03-31T04:33:54.580Z,1.40
2023-03-31T04:36:21.886Z,1.97
2023-03-31T04:38:56.421Z,1.50
2023-03-31T04:41:24.338Z,1.60
2023-03-31T04:43:50.923Z,1.53
2023-03-31T04:46:17.482Z,1.60
2023-03-31T04:48:44.044Z,2.17
2023-03-31T04:51:10.640Z,1.87
2023-03-31T04:53:37.193Z,2.00
2023-03-31T04:56:04.274Z,2.50
2023-03-31T04:58:31.076Z,2.80
2023-03-31T05:00:57.621Z,2.20
2023-03-31T05:03:24.399Z,2.60
2023-03-31T05:05:50.977Z,2.53
2023-03-31T05:08:17.570Z,2.67
2023-03-31T05:10:44.355Z,2.53
2023-03-31T05:13:11.092Z,3.60
2023-03-31T05:15:39.590Z,2.60
2023-03-31T05:18:07.025Z,2.87
2023-03-31T05:20:33.910Z,2.67
2023-03-31T05:23:00.500Z,2.80
2023-03-31T05:25:32.581Z,3.60
2023-03-31T05:28:00.236Z,3.40
2023-03-31T05:30:27.586Z,3.73
2023-03-31T05:32:54.425Z,3.93
2023-03-31T05:35:21.069Z,3.87
2023-03-31T05:37:47.584Z,4.00
2023-03-31T05:40:14.121Z,3.93
2023-03-31T05:42:41.800Z,3.67
2023-03-31T05:45:09.524Z,4.57
2023-03-31T05:47:36.762Z,4.97
2023-03-31T05:50:07.903Z,4.83
2023-03-31T05:52:35.457Z,5.37
2023-03-31T05:55:02.514Z,4.87
2023-03-31T05:57:29.125Z,5.20
2023-03-31T05:59:55.870Z,5.60
2023-03-31T06:02:22.569Z,5.33
2023-03-31T06:04:50.216Z,4.57
2023-03-31T06:07:17.860Z,5.10
2023-03-31T06:09:45.746Z,5.10
2023-03-31T06:12:12.297Z,6.37
2023-03-31T06:14:38.866Z,5.13
2023-03-31T06:17:05.387Z,5.53
2023-03-31T06:19:31.976Z,5.63
2023-03-31T06:21:58.750Z,4.97
2023-03-31T06:24:25.876Z,5.27
2023-03-31T06:26:53.761Z,4.87
2023-03-31T06:29:20.811Z,4.70
2023-03-31T06:31:47.599Z,5.20
2023-03-31T06:34:14.203Z,4.63
2023-03-31T06:36:41.932Z,5.03
2023-03-31T06:39:08.478Z,4.93
2023-03-31T06:41:35.015Z,6.23
2023-03-31T06:44:01.546Z,5.30
2023-03-31T06:46:28.377Z,6.30
2023-03-31T06:48:55.080Z,5.57
2023-03-31T06:51:21.651Z,5.40
2023-03-31T06:53:48.199Z,5.40
2023-03-31T06:56:14.929Z,5.27
2023-03-31T06:58:41.461Z,5.20
2023-03-31T07:01:08.416Z,4.93
2023-03-31T07:03:35.178Z,5.50
2023-03-31T07:06:01.874Z,5.40
2023-03-31T07:08:28.708Z,6.37
2023-03-31T07:10:58.363Z,6.20
2023-03-31T07:13:25.952Z,5.20
2023-03-31T07:15:53.696Z,4.90
2023-03-31T07:18:20.896Z,5.37
2023-03-31T07:20:50.826Z,4.83
2023-03-31T07:23:18.484Z,4.50
2023-03-31T07:25:46.860Z,4.40
2023-03-31T07:28:13.493Z,5.13
2023-03-31T07:30:41.083Z,5.40
2023-03-31T07:33:08.124Z,4.80
2023-03-31T07:35:38.277Z,4.73
2023-03-31T07:38:04.694Z,4.90
2023-03-31T07:40:31.318Z,4.73
2023-03-31T07:42:57.840Z,4.90
2023-03-31T07:45:26.269Z,4.63
2023-03-31T07:47:54.025Z,4.83
2023-03-31T07:50:22.221Z,5.37
2023-03-31T07:52:51.466Z,4.30
2023-03-31T07:55:18.396Z,4.57
2023-03-31T07:57:46.796Z,3.30
2023-03-31T08:00:15.716Z,2.67
2023-03-31T08:02:45.048Z,3.20
2023-03-31T08:05:13.485Z,2.77
2023-03-31T08:07:41.960Z,2.87
2023-03-31T08:10:12.251Z,2.67
2023-03-31T08:12:38.802Z,3.30
2023-03-31T08:15:05.979Z,3.43
2023-03-31T08:17:32.581Z,3.47
2023-03-31T08:20:02.782Z,2.97
2023-03-31T08:22:31.748Z,3.43
2023-03-31T08:24:58.220Z,2.80
2023-03-31T08:27:26.075Z,4.30
2023-03-31T08:29:52.557Z,4.13
2023-03-31T08:32:22.568Z,4.93
2023-03-31T08:34:49.057Z,3.93
2023-03-31T08:37:15.739Z,4.20
2023-03-31T08:39:42.265Z,3.97
2023-03-31T08:42:28.569Z,3.77
2023-03-31T08:45:22.841Z,3.50
2023-03-31T08:47:54.391Z,3.50
2023-03-31T08:50:25.648Z,4.00
2023-03-31T08:52:59.093Z,3.47
2023-03-31T08:55:34.426Z,2.53
2023-03-31T08:58:13.233Z,2.03
2023-03-31T09:01:02.070Z,2.40
2023-03-31T09:03:34.538Z,2.10
2023-03-31T09:06:08.198Z,2.10
2023-03-31T09:08:41.292Z,2.23
2023-03-31T09:11:13.351Z,2.63
2023-03-31T09:13:44.548Z,2.40
2023-03-31T09:16:35.756Z,2.03
2023-03-31T09:19:02.961Z,2.43
2023-03-31T09:21:33.920Z,2.40
2023-03-31T09:24:17.713Z,1.70
2023-03-31T09:26:49.391Z,1.53
2023-03-31T09:29:42.106Z,1.50
2023-03-31T09:32:37.283Z,1.60
2023-03-31T09:35:18.568Z,1.57
2023-03-31T09:37:45.111Z,1.50
2023-03-31T09:40:18.121Z,1.40
2023-03-31T09:42:46.581Z,1.47
2023-03-31T09:45:18.446Z,1.43
2023-03-31T09:47:48.711Z,1.27
2023-03-31T09:50:16.350Z,1.87
2023-03-31T09:52:47.621Z,2.33
2023-03-31T09:55:39.155Z,2.70
2023-03-31T09:58:08.619Z,2.50
2023-03-31T10:00:36.183Z,3.37
2023-03-31T10:03:14.229Z,2.73
2023-03-31T10:05:52.324Z,2.00
2023-03-31T10:08:31.517Z,2.40
2023-03-31T10:11:09.933Z,2.30
2023-03-31T10:13:47.331Z,2.30
2023-03-31T10:16:22.474Z,2.80
2023-03-31T10:18:49.901Z,2.60
2023-03-31T10:21:23.175Z,2.50
2023-03-31T10:23:51.064Z,2.30
2023-03-31T10:26:21.483Z,2.67
2023-03-31T10:28:55.139Z,2.77
2023-03-31T10:31:27.283Z,2.60
2023-03-31T10:33:55.000Z,2.60
2023-03-31T10:36:29.003Z,2.43
2023-03-31T10:38:56.640Z,2.67
2023-03-31T10:41:29.144Z,3.00
2023-03-31T10:44:02.259Z,1.97
2023-03-31T10:46:52.309Z,1.90
2023-03-31T10:49:21.817Z,1.93
2023-03-31T10:51:52.970Z,1.77
2023-03-31T10:54:20.086Z,1.87
2023-03-31T10:56:49.447Z,1.70
2023-03-31T10:59:17.204Z,1.47
2023-03-31T11:02:00.941Z,1.57
2023-03-31T11:04:33.246Z,1.43
2023-03-31T11:07:21.487Z,1.67
2023-03-31T11:10:15.270Z,1.50
2023-03-31T11:13:07.900Z,1.30
2023-03-31T11:16:03.058Z,1.70
2023-03-31T11:18:48.472Z,1.40
2023-03-31T11:21:26.425Z,1.50
2023-03-31T11:24:07.713Z,1.10
2023-03-31T11:26:52.962Z,1.50
2023-03-31T11:29:37.270Z,1.20
2023-03-31T11:32:31.807Z,1.10
2023-03-31T11:35:19.772Z,1.30
2023-03-31T11:38:27.337Z,1.40
2023-03-31T11:41:07.526Z,1.23
2023-03-31T11:43:56.682Z,1.23
2023-03-31T11:46:45.011Z,0.93
2023-03-31T11:49:22.511Z,1.33
2023-03-31T11:51:59.186Z,1.47
2023-03-31T11:54:37.945Z,1.30
2023-03-31T11:57:17.962Z,1.20
2023-03-31T11:59:52.809Z,0.90
2023-03-31T12:02:36.969Z,0.80
2023-03-31T12:05:06.181Z,0.70
2023-03-31T12:07:52.436Z,0.80
2023-03-31T12:10:23.288Z,0.93
2023-03-31T12:12:57.392Z,0.60
2023-03-31T12:15:30.079Z,0.70
2023-03-31T12:18:02.950Z,0.70
2023-03-31T12:20:37.835Z,0.60
2023-03-31T12:23:11.208Z,0.70
2023-03-31T12:25:51.125Z,0.70
2023-03-31T12:28:19.534Z,0.60
2023-03-31T12:30:48.146Z,0.70
2023-03-31T12:33:40.347Z,0.77
2023-03-31T12:36:10.325Z,0.90
2023-03-31T12:38:55.476Z,0.60
2023-03-31T12:41:47.247Z,0.70
2023-03-31T12:44:25.416Z,0.70
2023-03-31T12:47:12.456Z,0.70
2023-03-31T12:50:06.108Z,0.80
2023-03-31T12:52:41.915Z,1.10
2023-03-31T12:55:38.507Z,1.47
2023-03-31T12:58:32.311Z,0.83
2023-03-31T13:01:06.891Z,1.17
2023-03-31T13:03:42.945Z,1.00
2023-03-31T13:06:29.619Z,1.17
2023-03-31T13:09:02.540Z,1.83
2023-03-31T13:11:37.994Z,1.47
2023-03-31T13:14:06.257Z,1.20
2023-03-31T13:16:35.579Z,0.93
2023-03-31T13:19:02.754Z,1.20
2023-03-31T13:21:29.705Z,1.27
2023-03-31T13:24:01.582Z,0.93
2023-03-31T13:26:34.266Z,1.20
2023-03-31T13:29:16.396Z,1.33
2023-03-31T13:32:01.350Z,1.27
2023-03-31T13:34:34.171Z,1.30
2023-03-31T13:37:45.216Z,1.20
2023-03-31T13:40:36.358Z,1.00
2023-03-31T13:43:15.557Z,1.30
2023-03-31T13:45:59.045Z,1.00
2023-03-31T13:48:44.339Z,1.47
2023-03-31T13:51:15.947Z,1.20
2023-03-31T13:54:16.864Z,1.27
2023-03-31T13:57:04.591Z,1.57
2023-03-31T14:00:14.180Z,1.33
2023-03-31T14:02:58.421Z,1.13
2023-03-31T14:05:39.649Z,1.50
2023-03-31T14:08:14.707Z,1.53
2023-03-31T14:10:42.781Z,0.93
2023-03-31T14:13:13.383Z,0.80
2023-03-31T14:15:59.754Z,0.90
2023-03-31T14:18:34.061Z,1.20
2023-03-31T14:21:28.594Z,1.13
2023-03-31T14:23:54.984Z,1.20
2023-03-31T14:26:30.474Z,0.70
2023-03-31T14:29:19.588Z,0.90
2023-03-31T14:31:56.458Z,1.10
2023-03-31T14:34:26.179Z,0.80
2023-03-31T14:37:04.705Z,1.27
2023-03-31T14:39:40.611Z,1.00
2023-03-31T14:42:13.997Z,1.30
2023-03-31T14:44:42.693Z,0.90
2023-03-31T14:47:16.740Z,1.20
2023-03-31T14:49:43.566Z,0.87
2023-03-31T14:52:17.113Z,1.00
2023-03-31T14:54:50.141Z,1.37
2023-03-31T14:57:28.331Z,1.23
2023-03-31T14:59:55.776Z,1.07
2023-03-31T15:02:34.646Z,1.30
2023-03-31T15:05:07.554Z,1.03
2023-03-31T15:07:35.137Z,1.10
2023-03-31T15:10:02.713Z,0.87
2023-03-31T15:12:30.613Z,1.00
2023-03-31T15:15:03.953Z,1.27
2023-03-31T15:17:36.310Z,0.90
2023-03-31T15:20:37.160Z,1.43
2023-03-31T15:23:21.292Z,1.07
2023-03-31T15:25:48.116Z,1.20
2023-03-31T15:28:17.661Z,1.13
2023-03-31T15:30:47.687Z,0.90
2023-03-31T15:33:22.528Z,1.10
2023-03-31T15:35:49.305Z,0.90
2023-03-31T15:38:18.450Z,1.37
2023-03-31T15:40:56.051Z,0.67
2023-03-31T15:43:43.301Z,1.13
2023-03-31T15:46:15.760Z,0.80
2023-03-31T15:48:56.038Z,0.80
2023-03-31T15:51:43.700Z,1.00
2023-03-31T15:54:51.732Z,0.90
2023-03-31T15:57:22.285Z,0.80
2023-03-31T15:59:55.766Z,1.00
2023-03-31T16:02:26.378Z,0.90
2023-03-31T16:04:59.391Z,1.20
2023-03-31T16:07:32.040Z,0.83
2023-03-31T16:10:28.156Z,1.10
2023-03-31T16:13:01.921Z,1.40
2023-03-31T16:15:44.937Z,0.80
2023-03-31T16:18:37.467Z,1.00
2023-03-31T16:21:06.928Z,1.03
2023-03-31T16:23:38.680Z,1.00
2023-03-31T16:26:06.980Z,0.83
2023-03-31T16:28:36.147Z,1.00
2023-03-31T16:31:05.166Z,1.10
2023-03-31T16:33:53.075Z,1.23
2023-03-31T16:36:19.571Z,1.10
2023-03-31T16:38:46.918Z,1.03
2023-03-31T16:41:15.764Z,1.27
2023-03-31T16:43:45.129Z,1.00
2023-03-31T16:46:11.718Z,1.03
2023-03-31T16:48:38.713Z,1.50
2023-03-31T16:51:05.204Z,1.07
2023-03-31T16:53:34.488Z,1.00
2023-03-31T16:56:01.068Z,1.10
2023-03-31T16:58:31.420Z,0.60
2023-03-31T17:00:58.482Z,0.80
2023-03-31T17:03:25.353Z,0.80
2023-03-31T17:05:56.287Z,0.60
2023-03-31T17:08:27.441Z,0.60
2023-03-31T17:11:06.932Z,0.53
2023-03-31T17:13:33.967Z,0.60
2023-03-31T17:16:08.666Z,0.40
2023-03-31T17:18:42.494Z,0.33
2023-03-31T17:21:11.595Z,0.40
2023-03-31T17:23:39.088Z,0.40
2023-03-31T17:26:06.783Z,0.50
2023-03-31T17:28:33.500Z,0.60
2023-03-31T17:30:59.961Z,0.60
2023-03-31T17:33:27.792Z,0.57
2023-03-31T17:36:01.207Z,0.73
2023-03-31T17:38:27.612Z,0.60
2023-03-31T17:40:54.623Z,0.60
2023-03-31T17:43:21.774Z,0.70
2023-03-31T17:45:48.489Z,0.97
2023-03-31T17:48:16.336Z,1.10
2023-03-31T17:50:43.027Z,0.83
2023-03-31T17:53:09.475Z,0.70
2023-03-31T17:55:38.324Z,0.70
2023-03-31T17:58:06.361Z,0.97
2023-03-31T18:00:32.854Z,1.00
2023-03-31T18:02:59.691Z,0.83
2023-03-31T18:05:26.244Z,1.20
2023-03-31T18:07:53.507Z,0.87
2023-03-31T18:10:20.298Z,0.80
2023-03-31T18:12:46.767Z,1.10
2023-03-31T18:15:13.393Z,1.00
2023-03-31T18:17:39.983Z,1.00
2023-03-31T18:20:07.057Z,0.80
2023-03-31T18:22:33.478Z,0.93
2023-03-31T18:24:59.915Z,0.90
2023-03-31T18:27:26.503Z,0.73
2023-03-31T18:29:52.938Z,0.83
2023-03-31T18:32:19.817Z,1.10
2023-03-31T18:34:46.881Z,1.03
2023-03-31T18:37:13.451Z,0.93
2023-03-31T18:39:39.939Z,0.80
2023-03-31T18:42:06.646Z,0.80
2023-03-31T18:44:34.649Z,0.70
2023-03-31T18:47:01.697Z,0.70
2023-03-31T18:49:28.245Z,0.57
2023-03-31T18:51:54.742Z,0.60
2023-03-31T18:54:21.865Z,0.70
2023-03-31T18:56:48.328Z,0.90
2023-03-31T18:59:14.841Z,1.00
2023-03-31T19:01:41.446Z,0.60
2023-03-31T19:04:09.367Z,0.60
2023-03-31T19:06:36.444Z,0.60
2023-03-31T19:09:03.620Z,0.83
2023-03-31T19:11:30.193Z,0.77
2023-03-31T19:13:56.776Z,0.63
2023-03-31T19:16:27.368Z,0.60
2023-03-31T19:18:54.191Z,0.60
2023-03-31T19:21:21.318Z,0.70
2023-03-31T19:23:48.158Z,0.53
2023-03-31T19:26:16.572Z,0.70
2023-03-31T19:28:42.998Z,0.43
2023-03-31T19:31:10.184Z,0.50
2023-03-31T19:33:36.823Z,0.80
2023-03-31T19:36:04.345Z,0.60
2023-03-31T19:38:32.578Z,0.60
2023-03-31T19:40:59.933Z,0.70
2023-03-31T19:43:27.625Z,0.93
2023-03-31T19:45:56.853Z,0.80
2023-03-31T19:48:25.548Z,0.73
2023-03-31T19:50:55.805Z,0.73
2023-03-31T19:53:23.373Z,0.60
2023-03-31T19:55:59.939Z,0.80
2023-03-31T19:58:28.228Z,0.90
2023-03-31T20:00:56.296Z,0.80
2023-03-31T20:03:24.602Z,0.83
2023-03-31T20:05:51.896Z,0.73
2023-03-31T20:08:18.347Z,0.70
2023-03-31T20:10:44.890Z,0.70
2023-03-31T20:13:11.909Z,0.70
2023-03-31T20:15:40.416Z,0.73
2023-03-31T20:18:07.734Z,0.70
2023-03-31T20:20:34.281Z,0.90
2023-03-31T20:23:00.963Z,0.90
2023-03-31T20:25:27.476Z,0.80
2023-03-31T20:27:53.949Z,0.80
2023-03-31T20:30:20.563Z,0.80
2023-03-31T20:32:47.444Z,0.77
2023-03-31T20:35:14.045Z,0.80
2023-03-31T20:37:40.495Z,0.83
2023-03-31T20:40:07.511Z,0.80
2023-03-31T20:42:34.680Z,0.90
2023-03-31T20:45:01.826Z,0.63
2023-03-31T20:47:28.380Z,0.80
2023-03-31T20:49:54.858Z,0.90
2023-03-31T20:52:21.411Z,0.80
2023-03-31T20:54:47.883Z,0.90
2023-03-31T20:57:14.452Z,0.83
2023-03-31T20:59:40.983Z,0.70
2023-03-31T21:02:07.631Z,0.80
2023-03-31T21:04:34.218Z,0.80
2023-03-31T21:07:01.024Z,0.70
2023-03-31T21:09:27.510Z,0.80
2023-03-31T21:11:54.024Z,0.70
2023-03-31T21:14:20.473Z,0.70
2023-03-31T21:16:46.974Z,0.60
2023-03-31T21:19:13.491Z,0.90
2023-03-31T21:21:41.195Z,0.70
2023-03-31T21:24:09.100Z,0.70
2023-03-31T21:26:35.531Z,0.80
2023-03-31T21:29:02.030Z,0.90
2023-03-31T21:31:28.711Z,0.80
2023-03-31T21:33:58.812Z,0.80
2023-03-31T21:36:26.522Z,1.10
2023-03-31T21:38:54.220Z,0.80
2023-03-31T21:41:24.024Z,0.90
2023-03-31T21:43:51.316Z,0.80
2023-03-31T21:46:20.661Z,0.90
2023-03-31T21:48:48.184Z,1.40
2023-03-31T21:51:15.067Z,0.90
2023-03-31T21:53:41.722Z,1.20
2023-03-31T21:56:08.241Z,0.90
2023-03-31T21:58:34.807Z,0.90
2023-03-31T22:01:03.936Z,0.80
2023-03-31T22:03:34.147Z,0.80
2023-03-31T22:06:03.374Z,0.90
2023-03-31T22:08:31.434Z,0.90
2023-03-31T22:11:00.124Z,0.90
2023-03-31T22:13:27.616Z,1.10
2023-03-31T22:15:54.327Z,1.07
2023-03-31T22:18:22.012Z,0.90
2023-03-31T22:20:49.511Z,0.80
2023-03-31T22:23:16.777Z,1.00
2023-03-31T22:25:43.524Z,0.80
2023-03-31T22:28:10.339Z,0.90
2023-03-31T22:30:36.965Z,1.00
2023-03-31T22:33:03.758Z,1.03
2023-03-31T22:35:30.524Z,0.93
2023-03-31T22:37:57.127Z,0.80
2023-03-31T22:40:24.016Z,0.90
2023-03-31T22:42:50.554Z,1.10
2023-03-31T22:45:17.022Z,0.90
2023-03-31T22:47:43.573Z,0.90
2023-03-31T22:50:11.027Z,1.00
2023-03-31T22:52:37.724Z,0.97
2023-03-31T22:55:05.437Z,0.90
2023-03-31T22:57:32.173Z,0.90
2023-03-31T22:59:58.940Z,0.90
2023-03-31T23:02:25.510Z,0.73
2023-03-31T23:04:52.003Z,0.80
2023-03-31T23:07:18.518Z,1.10
2023-03-31T23:09:45.384Z,0.80
2023-03-31T23:12:11.844Z,0.80
2023-03-31T23:14:38.397Z,0.70
2023-03-31T23:17:04.844Z,0.80
2023-03-31T23:19:31.885Z,0.77
2023-03-31T23:21:58.389Z,0.90
2023-03-31T23:24:26.051Z,1.00
2023-03-31T23:26:52.567Z,0.93
2023-03-31T23:29:19.077Z,0.90
2023-03-31T23:31:45.736Z,0.70
2023-03-31T23:34:13.952Z,0.70
2023-03-31T23:36:40.497Z,1.00
2023-03-31T23:39:07.018Z,1.10
2023-03-31T23:41:33.526Z,0.70
2023-03-31T23:44:00.094Z,0.70
2023-03-31T23:46:26.710Z,0.90
2023-03-31T23:48:53.531Z,0.77
2023-03-31T23:51:20.236Z,0.90
2023-03-31T23:53:47.416Z,0.70
2023-03-31T23:56:14.492Z,0.70
2023-03-31T23:58:42.968Z,0.80
